KPBG/PBG METAR and TAF weather

Enter ICAO airport designator
Station Type Date Time Source
KPBG METAR 2020/11/27 02:53 UTC NOAA

KPBG 270253Z AUTO 19003KT 4SM BR BKN040 OVC048 07/07 A2994 RMK AO2 SLP139 T00720067 51004


Station Type Date Time Source
KPBG Decoded METAR 2020/11/27 02:53 UTC NOAA

PLATTSBURGH INTERNATIONAL AIRPORT, NY, United States (KPBG) 44-39N 073-28W
Nov 26, 2020 - 09:53 PM EST / 2020.11.27 0253 UTC
Wind: from the S (190 degrees) at 3 MPH (3 KT):0
Visibility: 4 mile(s):0
Sky conditions: overcast
Weather: mist
Temperature: 45.0 F (7.2 C)
Dew Point: 44.1 F (6.7 C)
Relative Humidity: 96%
Pressure (altimeter): 29.94 in. Hg (1013 hPa)
Pressure tendency: 0.01 inches (0.4 hPa) higher than three hours ago
ob: KPBG 270253Z AUTO 19003KT 4SM BR BKN040 OVC048 07/07 A2994 RMK AO2 SLP139 T00720067 51004
cycle: 3

Station Type Date Time Source
KPBG TAF 2020/11/27 02:51 UTC NOAA

TAF KPBG 270140Z 2702/2724 VRB03KT 1SM BR SCT004 OVC040
TEMPO 2702/2705 1/2SM FG BKN002
FM270600 VRB03KT 2SM BR BKN008 OVC018
FM271400 15005KT P6SM OVC020

Example: see airport list